sensor_id;sensor_type;location;lat;lon;timestamp;temperature;humidity
42841;DHT22;28491;46.898;7.660;2023-12-14T00:01:31;5.00;98.60
42841;DHT22;28491;46.898;7.660;2023-12-14T00:03:57;5.00;98.70
42841;DHT22;28491;46.898;7.660;2023-12-14T00:06:22;4.90;98.70
42841;DHT22;28491;46.898;7.660;2023-12-14T00:08:48;5.00;98.70
42841;DHT22;28491;46.898;7.660;2023-12-14T00:11:13;4.90;98.60
42841;DHT22;28491;46.898;7.660;2023-12-14T00:13:39;4.90;98.60
42841;DHT22;28491;46.898;7.660;2023-12-14T00:16:05;4.90;98.40
42841;DHT22;28491;46.898;7.660;2023-12-14T00:18:31;4.90;98.40
42841;DHT22;28491;46.898;7.660;2023-12-14T00:20:57;4.90;98.50
42841;DHT22;28491;46.898;7.660;2023-12-14T00:23:23;4.90;98.50
42841;DHT22;28491;46.898;7.660;2023-12-14T00:25:49;4.90;98.50
42841;DHT22;28491;46.898;7.660;2023-12-14T00:28:14;5.00;98.60
42841;DHT22;28491;46.898;7.660;2023-12-14T00:30:40;5.00;98.50
42841;DHT22;28491;46.898;7.660;2023-12-14T00:33:05;4.90;98.50
42841;DHT22;28491;46.898;7.660;2023-12-14T00:35:31;4.90;98.50
42841;DHT22;28491;46.898;7.660;2023-12-14T00:37:57;4.90;98.50
42841;DHT22;28491;46.898;7.660;2023-12-14T00:40:22;4.90;98.60
42841;DHT22;28491;46.898;7.660;2023-12-14T00:42:48;5.00;98.60
42841;DHT22;28491;46.898;7.660;2023-12-14T00:45:13;5.00;98.60
42841;DHT22;28491;46.898;7.660;2023-12-14T00:47:39;4.90;98.70
42841;DHT22;28491;46.898;7.660;2023-12-14T00:50:05;4.90;98.60
42841;DHT22;28491;46.898;7.660;2023-12-14T00:52:31;4.90;98.40
42841;DHT22;28491;46.898;7.660;2023-12-14T00:54:56;4.90;98.30
42841;DHT22;28491;46.898;7.660;2023-12-14T00:57:22;4.90;98.20
42841;DHT22;28491;46.898;7.660;2023-12-14T00:59:47;4.90;98.10
42841;DHT22;28491;46.898;7.660;2023-12-14T01:02:13;4.90;97.90
42841;DHT22;28491;46.898;7.660;2023-12-14T01:04:38;4.80;97.80
42841;DHT22;28491;46.898;7.660;2023-12-14T01:07:04;4.90;97.60
42841;DHT22;28491;46.898;7.660;2023-12-14T01:09:30;4.80;97.20
42841;DHT22;28491;46.898;7.660;2023-12-14T01:11:55;4.80;97.20
42841;DHT22;28491;46.898;7.660;2023-12-14T01:14:21;4.80;97.30
42841;DHT22;28491;46.898;7.660;2023-12-14T01:16:47;4.80;97.00
42841;DHT22;28491;46.898;7.660;2023-12-14T01:19:12;4.70;96.90
42841;DHT22;28491;46.898;7.660;2023-12-14T01:21:38;4.70;96.90
42841;DHT22;28491;46.898;7.660;2023-12-14T01:24:04;4.70;96.80
42841;DHT22;28491;46.898;7.660;2023-12-14T01:26:29;4.70;97.20
42841;DHT22;28491;46.898;7.660;2023-12-14T01:28:55;4.60;97.20
42841;DHT22;28491;46.898;7.660;2023-12-14T01:31:21;4.60;97.20
42841;DHT22;28491;46.898;7.660;2023-12-14T01:33:49;4.60;97.00
42841;DHT22;28491;46.898;7.660;2023-12-14T01:36:22;4.70;97.10
42841;DHT22;28491;46.898;7.660;2023-12-14T01:38:48;4.70;97.20
42841;DHT22;28491;46.898;7.660;2023-12-14T01:41:13;4.70;97.30
42841;DHT22;28491;46.898;7.660;2023-12-14T01:43:39;4.70;97.30
42841;DHT22;28491;46.898;7.660;2023-12-14T01:46:05;4.70;97.20
42841;DHT22;28491;46.898;7.660;2023-12-14T01:48:30;4.70;97.20
42841;DHT22;28491;46.898;7.660;2023-12-14T01:50:56;4.60;97.30
42841;DHT22;28491;46.898;7.660;2023-12-14T01:53:21;4.60;97.60
42841;DHT22;28491;46.898;7.660;2023-12-14T01:55:47;4.60;97.70
42841;DHT22;28491;46.898;7.660;2023-12-14T01:58:12;4.60;97.70
42841;DHT22;28491;46.898;7.660;2023-12-14T02:01:04;4.60;97.70
42841;DHT22;28491;46.898;7.660;2023-12-14T02:03:31;4.60;97.90
42841;DHT22;28491;46.898;7.660;2023-12-14T02:05:56;4.70;97.90
42841;DHT22;28491;46.898;7.660;2023-12-14T02:08:24;4.70;97.80
42841;DHT22;28491;46.898;7.660;2023-12-14T02:10:49;4.70;97.70
42841;DHT22;28491;46.898;7.660;2023-12-14T02:13:15;4.60;97.70
42841;DHT22;28491;46.898;7.660;2023-12-14T02:15:41;4.60;97.70
42841;DHT22;28491;46.898;7.660;2023-12-14T02:18:06;4.60;97.70
42841;DHT22;28491;46.898;7.660;2023-12-14T02:20:32;4.70;97.80
42841;DHT22;28491;46.898;7.660;2023-12-14T02:22:57;4.60;97.90
42841;DHT22;28491;46.898;7.660;2023-12-14T02:25:24;4.60;97.80
42841;DHT22;28491;46.898;7.660;2023-12-14T02:27:50;4.60;97.70
42841;DHT22;28491;46.898;7.660;2023-12-14T02:30:17;4.60;97.70
42841;DHT22;28491;46.898;7.660;2023-12-14T02:32:43;4.60;97.90
42841;DHT22;28491;46.898;7.660;2023-12-14T02:35:09;4.60;98.00
42841;DHT22;28491;46.898;7.660;2023-12-14T02:37:35;4.60;98.20
42841;DHT22;28491;46.898;7.660;2023-12-14T02:40:06;4.60;98.10
42841;DHT22;28491;46.898;7.660;2023-12-14T02:42:32;4.60;98.20
42841;DHT22;28491;46.898;7.660;2023-12-14T02:44:58;4.60;98.20
42841;DHT22;28491;46.898;7.660;2023-12-14T02:47:23;4.60;98.40
42841;DHT22;28491;46.898;7.660;2023-12-14T02:49:49;4.60;98.40
42841;DHT22;28491;46.898;7.660;2023-12-14T02:52:15;4.60;98.50
42841;DHT22;28491;46.898;7.660;2023-12-14T02:54:40;4.60;98.50
42841;DHT22;28491;46.898;7.660;2023-12-14T02:57:06;4.60;98.50
42841;DHT22;28491;46.898;7.660;2023-12-14T02:59:32;4.60;98.40
42841;DHT22;28491;46.898;7.660;2023-12-14T03:01:58;4.60;98.50
42841;DHT22;28491;46.898;7.660;2023-12-14T03:04:23;4.60;98.50
42841;DHT22;28491;46.898;7.660;2023-12-14T03:06:49;4.60;98.60
42841;DHT22;28491;46.898;7.660;2023-12-14T03:09:14;4.60;98.60
42841;DHT22;28491;46.898;7.660;2023-12-14T03:11:40;4.60;98.60
42841;DHT22;28491;46.898;7.660;2023-12-14T03:14:06;4.60;98.60
42841;DHT22;28491;46.898;7.660;2023-12-14T03:16:31;4.60;98.40
42841;DHT22;28491;46.898;7.660;2023-12-14T03:18:57;4.60;98.20
42841;DHT22;28491;46.898;7.660;2023-12-14T03:21:23;4.60;98.10
42841;DHT22;28491;46.898;7.660;2023-12-14T03:23:49;4.60;98.10
42841;DHT22;28491;46.898;7.660;2023-12-14T03:26:15;4.60;98.20
42841;DHT22;28491;46.898;7.660;2023-12-14T03:28:40;4.50;97.90
42841;DHT22;28491;46.898;7.660;2023-12-14T03:31:06;4.50;97.90
42841;DHT22;28491;46.898;7.660;2023-12-14T03:33:31;4.40;97.30
42841;DHT22;28491;46.898;7.660;2023-12-14T03:35:57;4.30;96.20
42841;DHT22;28491;46.898;7.660;2023-12-14T03:38:22;4.40;95.90
42841;DHT22;28491;46.898;7.660;2023-12-14T03:40:48;4.30;95.90
42841;DHT22;28491;46.898;7.660;2023-12-14T03:43:13;4.30;96.20
42841;DHT22;28491;46.898;7.660;2023-12-14T03:45:39;4.30;96.60
42841;DHT22;28491;46.898;7.660;2023-12-14T03:48:05;4.30;97.10
42841;DHT22;28491;46.898;7.660;2023-12-14T03:50:30;4.30;97.30
42841;DHT22;28491;46.898;7.660;2023-12-14T03:52:58;4.40;97.40
42841;DHT22;28491;46.898;7.660;2023-12-14T03:55:23;4.30;97.30
42841;DHT22;28491;46.898;7.660;2023-12-14T03:57:49;4.30;97.10
42841;DHT22;28491;46.898;7.660;2023-12-14T04:00:14;4.30;96.90
42841;DHT22;28491;46.898;7.660;2023-12-14T04:02:40;4.30;96.70
42841;DHT22;28491;46.898;7.660;2023-12-14T04:05:07;4.30;96.90
42841;DHT22;28491;46.898;7.660;2023-12-14T04:07:39;4.30;97.00
42841;DHT22;28491;46.898;7.660;2023-12-14T04:10:14;4.30;97.00
42841;DHT22;28491;46.898;7.660;2023-12-14T04:12:40;4.20;97.00
42841;DHT22;28491;46.898;7.660;2023-12-14T04:15:07;4.30;96.90
42841;DHT22;28491;46.898;7.660;2023-12-14T04:17:34;4.20;96.90
42841;DHT22;28491;46.898;7.660;2023-12-14T04:20:00;4.20;97.10
42841;DHT22;28491;46.898;7.660;2023-12-14T04:22:26;4.20;97.10
42841;DHT22;28491;46.898;7.660;2023-12-14T04:24:52;4.20;97.20
42841;DHT22;28491;46.898;7.660;2023-12-14T04:27:17;4.20;97.20
42841;DHT22;28491;46.898;7.660;2023-12-14T04:29:43;4.20;97.20
42841;DHT22;28491;46.898;7.660;2023-12-14T04:32:09;4.20;97.30
42841;DHT22;28491;46.898;7.660;2023-12-14T04:34:34;4.20;97.30
42841;DHT22;28491;46.898;7.660;2023-12-14T04:37:00;4.20;97.40
42841;DHT22;28491;46.898;7.660;2023-12-14T04:39:26;4.30;97.50
42841;DHT22;28491;46.898;7.660;2023-12-14T04:41:52;4.30;97.50
42841;DHT22;28491;46.898;7.660;2023-12-14T04:44:18;4.30;97.50
42841;DHT22;28491;46.898;7.660;2023-12-14T04:46:44;4.30;97.60
42841;DHT22;28491;46.898;7.660;2023-12-14T04:49:12;4.30;97.60
42841;DHT22;28491;46.898;7.660;2023-12-14T04:51:38;4.30;97.70
42841;DHT22;28491;46.898;7.660;2023-12-14T04:54:04;4.30;97.70
42841;DHT22;28491;46.898;7.660;2023-12-14T04:56:29;4.30;97.70
42841;DHT22;28491;46.898;7.660;2023-12-14T04:58:55;4.30;97.80
42841;DHT22;28491;46.898;7.660;2023-12-14T05:01:20;4.40;97.90
42841;DHT22;28491;46.898;7.660;2023-12-14T05:03:46;4.40;98.00
42841;DHT22;28491;46.898;7.660;2023-12-14T05:06:11;4.40;98.00
42841;DHT22;28491;46.898;7.660;2023-12-14T05:08:37;4.40;98.10
42841;DHT22;28491;46.898;7.660;2023-12-14T05:11:03;4.40;98.00
42841;DHT22;28491;46.898;7.660;2023-12-14T05:13:29;4.40;98.00
42841;DHT22;28491;46.898;7.660;2023-12-14T05:15:54;4.30;98.20
42841;DHT22;28491;46.898;7.660;2023-12-14T05:18:20;4.30;98.20
42841;DHT22;28491;46.898;7.660;2023-12-14T05:20:46;4.30;98.30
42841;DHT22;28491;46.898;7.660;2023-12-14T05:23:12;4.30;98.30
42841;DHT22;28491;46.898;7.660;2023-12-14T05:25:38;4.30;98.20
42841;DHT22;28491;46.898;7.660;2023-12-14T05:28:03;4.30;98.10
42841;DHT22;28491;46.898;7.660;2023-12-14T05:30:29;4.30;98.20
42841;DHT22;28491;46.898;7.660;2023-12-14T05:32:55;4.30;98.20
42841;DHT22;28491;46.898;7.660;2023-12-14T05:35:20;4.30;98.10
42841;DHT22;28491;46.898;7.660;2023-12-14T05:37:46;4.30;98.00
42841;DHT22;28491;46.898;7.660;2023-12-14T05:40:12;4.30;98.00
42841;DHT22;28491;46.898;7.660;2023-12-14T05:42:37;4.30;98.10
42841;DHT22;28491;46.898;7.660;2023-12-14T05:45:05;4.30;98.10
42841;DHT22;28491;46.898;7.660;2023-12-14T05:47:30;4.30;98.10
42841;DHT22;28491;46.898;7.660;2023-12-14T05:49:57;4.30;98.10
42841;DHT22;28491;46.898;7.660;2023-12-14T05:52:24;4.30;98.00
42841;DHT22;28491;46.898;7.660;2023-12-14T05:54:50;4.30;97.90
42841;DHT22;28491;46.898;7.660;2023-12-14T05:57:15;4.30;98.00
42841;DHT22;28491;46.898;7.660;2023-12-14T05:59:41;4.30;97.90
42841;DHT22;28491;46.898;7.660;2023-12-14T06:02:06;4.30;98.00
42841;DHT22;28491;46.898;7.660;2023-12-14T06:04:32;4.30;97.90
42841;DHT22;28491;46.898;7.660;2023-12-14T06:06:57;4.30;98.00
42841;DHT22;28491;46.898;7.660;2023-12-14T06:09:23;4.40;98.00
42841;DHT22;28491;46.898;7.660;2023-12-14T06:11:55;4.30;98.00
42841;DHT22;28491;46.898;7.660;2023-12-14T06:14:20;4.40;98.00
42841;DHT22;28491;46.898;7.660;2023-12-14T06:16:58;4.30;98.00
42841;DHT22;28491;46.898;7.660;2023-12-14T06:19:26;4.40;98.10
42841;DHT22;28491;46.898;7.660;2023-12-14T06:21:52;4.40;98.00
42841;DHT22;28491;46.898;7.660;2023-12-14T06:24:17;4.50;97.90
42841;DHT22;28491;46.898;7.660;2023-12-14T06:26:44;4.40;97.80
42841;DHT22;28491;46.898;7.660;2023-12-14T06:29:11;4.30;97.80
42841;DHT22;28491;46.898;7.660;2023-12-14T06:31:40;4.40;97.80
42841;DHT22;28491;46.898;7.660;2023-12-14T06:34:06;4.40;97.80
42841;DHT22;28491;46.898;7.660;2023-12-14T06:36:31;4.40;98.00
42841;DHT22;28491;46.898;7.660;2023-12-14T06:38:58;4.40;98.10
42841;DHT22;28491;46.898;7.660;2023-12-14T06:41:24;4.40;98.20
42841;DHT22;28491;46.898;7.660;2023-12-14T06:43:51;4.40;98.10
42841;DHT22;28491;46.898;7.660;2023-12-14T06:46:17;4.40;98.10
42841;DHT22;28491;46.898;7.660;2023-12-14T06:48:43;4.40;98.00
42841;DHT22;28491;46.898;7.660;2023-12-14T06:51:09;4.40;98.10
42841;DHT22;28491;46.898;7.660;2023-12-14T06:53:35;4.40;98.10
42841;DHT22;28491;46.898;7.660;2023-12-14T06:56:03;4.40;98.10
42841;DHT22;28491;46.898;7.660;2023-12-14T06:58:29;4.40;98.00
42841;DHT22;28491;46.898;7.660;2023-12-14T07:00:54;4.40;98.00
42841;DHT22;28491;46.898;7.660;2023-12-14T07:03:20;4.40;97.90
42841;DHT22;28491;46.898;7.660;2023-12-14T07:05:45;4.40;98.00
42841;DHT22;28491;46.898;7.660;2023-12-14T07:08:11;4.40;97.90
42841;DHT22;28491;46.898;7.660;2023-12-14T07:10:36;4.40;97.90
42841;DHT22;28491;46.898;7.660;2023-12-14T07:13:02;4.40;98.00
42841;DHT22;28491;46.898;7.660;2023-12-14T07:15:27;4.40;98.10
42841;DHT22;28491;46.898;7.660;2023-12-14T07:17:53;4.40;98.10
42841;DHT22;28491;46.898;7.660;2023-12-14T07:20:19;4.40;98.10
42841;DHT22;28491;46.898;7.660;2023-12-14T07:22:46;4.40;98.10
42841;DHT22;28491;46.898;7.660;2023-12-14T07:25:12;4.40;98.10
42841;DHT22;28491;46.898;7.660;2023-12-14T07:27:37;4.50;98.10
42841;DHT22;28491;46.898;7.660;2023-12-14T07:30:03;4.50;98.20
42841;DHT22;28491;46.898;7.660;2023-12-14T07:32:29;4.50;98.20
42841;DHT22;28491;46.898;7.660;2023-12-14T07:34:55;4.50;98.30
42841;DHT22;28491;46.898;7.660;2023-12-14T07:37:20;4.50;98.30
42841;DHT22;28491;46.898;7.660;2023-12-14T07:39:46;4.60;98.30
42841;DHT22;28491;46.898;7.660;2023-12-14T07:42:11;4.60;98.30
42841;DHT22;28491;46.898;7.660;2023-12-14T07:44:38;4.60;98.30
42841;DHT22;28491;46.898;7.660;2023-12-14T07:47:05;4.60;98.30
42841;DHT22;28491;46.898;7.660;2023-12-14T07:49:31;4.60;98.30
42841;DHT22;28491;46.898;7.660;2023-12-14T07:51:57;4.60;98.20
42841;DHT22;28491;46.898;7.660;2023-12-14T07:54:22;4.50;97.90
42841;DHT22;28491;46.898;7.660;2023-12-14T07:56:48;4.60;97.90
42841;DHT22;28491;46.898;7.660;2023-12-14T07:59:13;4.60;98.00
42841;DHT22;28491;46.898;7.660;2023-12-14T08:01:39;4.60;98.00
42841;DHT22;28491;46.898;7.660;2023-12-14T08:04:05;4.60;97.90
42841;DHT22;28491;46.898;7.660;2023-12-14T08:06:30;4.60;97.90
42841;DHT22;28491;46.898;7.660;2023-12-14T08:08:56;4.60;97.90
42841;DHT22;28491;46.898;7.660;2023-12-14T08:11:25;4.60;98.00
42841;DHT22;28491;46.898;7.660;2023-12-14T08:13:51;4.60;98.00
42841;DHT22;28491;46.898;7.660;2023-12-14T08:16:16;4.70;98.10
42841;DHT22;28491;46.898;7.660;2023-12-14T08:18:45;4.70;98.00
42841;DHT22;28491;46.898;7.660;2023-12-14T08:21:12;4.60;98.00
42841;DHT22;28491;46.898;7.660;2023-12-14T08:23:37;4.70;98.00
42841;DHT22;28491;46.898;7.660;2023-12-14T08:26:03;4.70;98.00
42841;DHT22;28491;46.898;7.660;2023-12-14T08:28:29;4.70;98.00
42841;DHT22;28491;46.898;7.660;2023-12-14T08:30:55;4.70;98.00
42841;DHT22;28491;46.898;7.660;2023-12-14T08:33:22;4.70;97.90
42841;DHT22;28491;46.898;7.660;2023-12-14T08:35:49;4.70;97.80
42841;DHT22;28491;46.898;7.660;2023-12-14T08:38:15;4.80;97.70
42841;DHT22;28491;46.898;7.660;2023-12-14T08:40:42;4.80;97.70
42841;DHT22;28491;46.898;7.660;2023-12-14T08:43:07;4.80;97.70
42841;DHT22;28491;46.898;7.660;2023-12-14T08:45:33;4.90;97.70
42841;DHT22;28491;46.898;7.660;2023-12-14T08:47:58;4.90;97.50
42841;DHT22;28491;46.898;7.660;2023-12-14T08:50:24;4.90;97.50
42841;DHT22;28491;46.898;7.660;2023-12-14T08:52:51;4.90;97.40
42841;DHT22;28491;46.898;7.660;2023-12-14T08:55:20;4.90;97.50
42841;DHT22;28491;46.898;7.660;2023-12-14T08:57:47;4.90;97.40
42841;DHT22;28491;46.898;7.660;2023-12-14T09:00:19;5.00;97.40
42841;DHT22;28491;46.898;7.660;2023-12-14T09:02:45;5.00;97.50
42841;DHT22;28491;46.898;7.660;2023-12-14T09:05:15;5.00;97.60
42841;DHT22;28491;46.898;7.660;2023-12-14T09:07:42;5.00;97.70
42841;DHT22;28491;46.898;7.660;2023-12-14T09:10:08;5.00;97.80
42841;DHT22;28491;46.898;7.660;2023-12-14T09:12:34;5.00;97.90
42841;DHT22;28491;46.898;7.660;2023-12-14T09:15:00;5.00;97.90
42841;DHT22;28491;46.898;7.660;2023-12-14T09:17:26;5.10;98.00
42841;DHT22;28491;46.898;7.660;2023-12-14T09:19:57;5.10;98.00
42841;DHT22;28491;46.898;7.660;2023-12-14T09:22:22;5.10;98.10
42841;DHT22;28491;46.898;7.660;2023-12-14T09:24:48;5.10;98.10
42841;DHT22;28491;46.898;7.660;2023-12-14T09:27:14;5.10;98.20
42841;DHT22;28491;46.898;7.660;2023-12-14T09:29:40;5.10;98.20
42841;DHT22;28491;46.898;7.660;2023-12-14T09:32:08;5.20;98.20
42841;DHT22;28491;46.898;7.660;2023-12-14T09:34:34;5.10;98.20
42841;DHT22;28491;46.898;7.660;2023-12-14T09:36:59;5.20;98.20
42841;DHT22;28491;46.898;7.660;2023-12-14T09:39:25;5.20;98.20
42841;DHT22;28491;46.898;7.660;2023-12-14T09:41:51;5.20;98.20
42841;DHT22;28491;46.898;7.660;2023-12-14T09:44:16;5.20;98.20
42841;DHT22;28491;46.898;7.660;2023-12-14T09:46:43;5.20;98.20
42841;DHT22;28491;46.898;7.660;2023-12-14T09:49:15;5.20;98.10
42841;DHT22;28491;46.898;7.660;2023-12-14T09:51:41;5.20;98.00
42841;DHT22;28491;46.898;7.660;2023-12-14T09:54:09;5.30;98.00
42841;DHT22;28491;46.898;7.660;2023-12-14T09:56:35;5.30;97.90
42841;DHT22;28491;46.898;7.660;2023-12-14T09:59:01;5.30;97.70
42841;DHT22;28491;46.898;7.660;2023-12-14T10:01:27;5.40;97.60
42841;DHT22;28491;46.898;7.660;2023-12-14T10:04:10;5.40;97.60
42841;DHT22;28491;46.898;7.660;2023-12-14T10:06:37;5.50;97.70
42841;DHT22;28491;46.898;7.660;2023-12-14T10:09:02;5.40;97.80
42841;DHT22;28491;46.898;7.660;2023-12-14T10:11:29;5.40;97.80
42841;DHT22;28491;46.898;7.660;2023-12-14T10:13:55;5.40;97.90
42841;DHT22;28491;46.898;7.660;2023-12-14T10:16:32;5.40;97.90
42841;DHT22;28491;46.898;7.660;2023-12-14T10:18:58;5.40;97.80
42841;DHT22;28491;46.898;7.660;2023-12-14T10:21:26;5.40;97.50
42841;DHT22;28491;46.898;7.660;2023-12-14T10:23:52;5.50;97.60
42841;DHT22;28491;46.898;7.660;2023-12-14T10:26:22;5.60;97.50
42841;DHT22;28491;46.898;7.660;2023-12-14T10:28:49;5.60;97.50
42841;DHT22;28491;46.898;7.660;2023-12-14T10:31:15;5.60;97.10
42841;DHT22;28491;46.898;7.660;2023-12-14T10:33:40;5.60;97.00
42841;DHT22;28491;46.898;7.660;2023-12-14T10:36:07;5.60;96.90
42841;DHT22;28491;46.898;7.660;2023-12-14T10:38:34;5.60;96.80
42841;DHT22;28491;46.898;7.660;2023-12-14T10:41:03;5.70;96.70
42841;DHT22;28491;46.898;7.660;2023-12-14T10:43:29;5.60;96.30
42841;DHT22;28491;46.898;7.660;2023-12-14T10:45:55;5.60;96.30
42841;DHT22;28491;46.898;7.660;2023-12-14T10:48:21;5.60;96.20
42841;DHT22;28491;46.898;7.660;2023-12-14T10:50:48;5.70;96.20
42841;DHT22;28491;46.898;7.660;2023-12-14T10:53:15;5.60;96.20
42841;DHT22;28491;46.898;7.660;2023-12-14T10:55:43;5.60;95.90
42841;DHT22;28491;46.898;7.660;2023-12-14T10:58:10;5.60;95.80
42841;DHT22;28491;46.898;7.660;2023-12-14T11:00:37;5.70;95.90
42841;DHT22;28491;46.898;7.660;2023-12-14T11:03:06;5.60;95.80
42841;DHT22;28491;46.898;7.660;2023-12-14T11:05:33;5.60;95.80
42841;DHT22;28491;46.898;7.660;2023-12-14T11:08:03;5.70;96.00
42841;DHT22;28491;46.898;7.660;2023-12-14T11:14:18;5.70;96.40
42841;DHT22;28491;46.898;7.660;2023-12-14T11:19:51;5.70;96.60
42841;DHT22;28491;46.898;7.660;2023-12-14T11:22:34;5.80;96.00
42841;DHT22;28491;46.898;7.660;2023-12-14T11:25:04;5.80;95.90
42841;DHT22;28491;46.898;7.660;2023-12-14T11:31:01;5.60;94.80
42841;DHT22;28491;46.898;7.660;2023-12-14T11:33:28;5.80;94.70
42841;DHT22;28491;46.898;7.660;2023-12-14T11:35:54;5.80;94.10
42841;DHT22;28491;46.898;7.660;2023-12-14T11:38:24;5.90;93.10
42841;DHT22;28491;46.898;7.660;2023-12-14T11:40:50;5.80;92.90
42841;DHT22;28491;46.898;7.660;2023-12-14T11:43:16;5.90;93.20
42841;DHT22;28491;46.898;7.660;2023-12-14T11:45:42;6.00;93.10
42841;DHT22;28491;46.898;7.660;2023-12-14T11:48:39;5.90;93.20
42841;DHT22;28491;46.898;7.660;2023-12-14T11:51:10;5.90;93.40
42841;DHT22;28491;46.898;7.660;2023-12-14T11:53:36;5.90;93.60
42841;DHT22;28491;46.898;7.660;2023-12-14T11:56:06;5.90;94.00
42841;DHT22;28491;46.898;7.660;2023-12-14T11:58:32;5.80;92.50
42841;DHT22;28491;46.898;7.660;2023-12-14T12:01:19;5.80;92.80
42841;DHT22;28491;46.898;7.660;2023-12-14T12:03:46;5.80;93.20
42841;DHT22;28491;46.898;7.660;2023-12-14T12:06:26;5.80;93.40
42841;DHT22;28491;46.898;7.660;2023-12-14T12:08:53;5.70;93.40
42841;DHT22;28491;46.898;7.660;2023-12-14T12:11:24;5.70;92.70
42841;DHT22;28491;46.898;7.660;2023-12-14T12:13:54;5.70;92.60
42841;DHT22;28491;46.898;7.660;2023-12-14T12:16:20;5.70;93.50
42841;DHT22;28491;46.898;7.660;2023-12-14T12:18:46;5.70;93.80
42841;DHT22;28491;46.898;7.660;2023-12-14T12:21:12;5.70;94.00
42841;DHT22;28491;46.898;7.660;2023-12-14T12:23:38;5.70;94.40
42841;DHT22;28491;46.898;7.660;2023-12-14T12:26:04;5.70;94.20
42841;DHT22;28491;46.898;7.660;2023-12-14T12:28:30;5.80;94.40
42841;DHT22;28491;46.898;7.660;2023-12-14T12:30:56;5.80;94.10
42841;DHT22;28491;46.898;7.660;2023-12-14T12:33:21;5.80;94.40
42841;DHT22;28491;46.898;7.660;2023-12-14T12:35:47;5.80;94.10
42841;DHT22;28491;46.898;7.660;2023-12-14T12:38:12;5.80;93.30
42841;DHT22;28491;46.898;7.660;2023-12-14T12:40:39;5.80;93.70
42841;DHT22;28491;46.898;7.660;2023-12-14T12:43:05;5.90;93.50
42841;DHT22;28491;46.898;7.660;2023-12-14T12:45:30;5.90;93.30
42841;DHT22;28491;46.898;7.660;2023-12-14T12:47:57;5.90;93.60
42841;DHT22;28491;46.898;7.660;2023-12-14T12:50:23;5.90;92.90
42841;DHT22;28491;46.898;7.660;2023-12-14T12:52:48;5.90;92.50
42841;DHT22;28491;46.898;7.660;2023-12-14T12:55:14;5.80;92.50
42841;DHT22;28491;46.898;7.660;2023-12-14T12:57:40;5.90;92.30
42841;DHT22;28491;46.898;7.660;2023-12-14T13:00:07;5.90;92.80
42841;DHT22;28491;46.898;7.660;2023-12-14T13:02:37;5.90;92.70
42841;DHT22;28491;46.898;7.660;2023-12-14T13:05:05;5.90;92.40
42841;DHT22;28491;46.898;7.660;2023-12-14T13:07:31;5.90;92.00
42841;DHT22;28491;46.898;7.660;2023-12-14T13:09:56;5.90;92.00
42841;DHT22;28491;46.898;7.660;2023-12-14T13:12:22;5.90;92.00
42841;DHT22;28491;46.898;7.660;2023-12-14T13:14:47;5.80;90.70
42841;DHT22;28491;46.898;7.660;2023-12-14T13:17:13;5.90;91.90
42841;DHT22;28491;46.898;7.660;2023-12-14T13:19:38;5.80;90.80
42841;DHT22;28491;46.898;7.660;2023-12-14T13:22:04;5.90;91.30
42841;DHT22;28491;46.898;7.660;2023-12-14T13:24:30;5.90;91.70
42841;DHT22;28491;46.898;7.660;2023-12-14T13:26:55;5.80;90.60
42841;DHT22;28491;46.898;7.660;2023-12-14T13:29:21;5.80;90.90
42841;DHT22;28491;46.898;7.660;2023-12-14T13:31:47;5.90;91.20
42841;DHT22;28491;46.898;7.660;2023-12-14T13:34:13;5.80;90.80
42841;DHT22;28491;46.898;7.660;2023-12-14T13:36:38;5.80;90.50
42841;DHT22;28491;46.898;7.660;2023-12-14T13:39:04;5.80;90.90
42841;DHT22;28491;46.898;7.660;2023-12-14T13:41:31;5.80;90.50
42841;DHT22;28491;46.898;7.660;2023-12-14T13:44:00;5.80;90.80
42841;DHT22;28491;46.898;7.660;2023-12-14T13:46:25;5.80;91.30
42841;DHT22;28491;46.898;7.660;2023-12-14T13:48:51;5.90;91.30
42841;DHT22;28491;46.898;7.660;2023-12-14T13:51:18;5.80;90.30
42841;DHT22;28491;46.898;7.660;2023-12-14T13:53:44;5.80;90.80
42841;DHT22;28491;46.898;7.660;2023-12-14T13:56:10;5.80;91.70
42841;DHT22;28491;46.898;7.660;2023-12-14T13:58:35;5.80;91.60
42841;DHT22;28491;46.898;7.660;2023-12-14T14:01:04;5.80;91.60
42841;DHT22;28491;46.898;7.660;2023-12-14T14:03:33;5.80;92.00
42841;DHT22;28491;46.898;7.660;2023-12-14T14:05:58;5.90;92.60
42841;DHT22;28491;46.898;7.660;2023-12-14T14:08:24;5.90;92.50
42841;DHT22;28491;46.898;7.660;2023-12-14T14:10:50;5.90;92.90
42841;DHT22;28491;46.898;7.660;2023-12-14T14:13:15;5.80;93.10
42841;DHT22;28491;46.898;7.660;2023-12-14T14:15:41;5.90;93.20
42841;DHT22;28491;46.898;7.660;2023-12-14T14:18:06;5.90;93.00
42841;DHT22;28491;46.898;7.660;2023-12-14T14:20:32;5.90;92.40
42841;DHT22;28491;46.898;7.660;2023-12-14T14:22:58;5.90;92.40
42841;DHT22;28491;46.898;7.660;2023-12-14T14:25:25;5.80;92.10
42841;DHT22;28491;46.898;7.660;2023-12-14T14:27:51;5.90;92.30
42841;DHT22;28491;46.898;7.660;2023-12-14T14:30:16;5.80;92.80
42841;DHT22;28491;46.898;7.660;2023-12-14T14:32:42;5.90;93.00
42841;DHT22;28491;46.898;7.660;2023-12-14T14:35:08;5.80;93.10
42841;DHT22;28491;46.898;7.660;2023-12-14T14:37:34;5.90;93.60
42841;DHT22;28491;46.898;7.660;2023-12-14T14:40:00;5.90;93.30
42841;DHT22;28491;46.898;7.660;2023-12-14T14:42:25;5.90;93.30
42841;DHT22;28491;46.898;7.660;2023-12-14T14:44:51;5.90;93.10
42841;DHT22;28491;46.898;7.660;2023-12-14T14:47:16;5.90;93.30
42841;DHT22;28491;46.898;7.660;2023-12-14T14:49:43;5.90;93.20
42841;DHT22;28491;46.898;7.660;2023-12-14T14:52:08;5.90;93.10
42841;DHT22;28491;46.898;7.660;2023-12-14T14:54:34;5.90;93.00
42841;DHT22;28491;46.898;7.660;2023-12-14T14:57:00;5.90;93.10
42841;DHT22;28491;46.898;7.660;2023-12-14T14:59:26;5.90;93.30
42841;DHT22;28491;46.898;7.660;2023-12-14T15:01:52;6.00;93.50
42841;DHT22;28491;46.898;7.660;2023-12-14T15:04:17;5.90;93.50
42841;DHT22;28491;46.898;7.660;2023-12-14T15:06:44;6.00;93.90
42841;DHT22;28491;46.898;7.660;2023-12-14T15:09:09;6.00;94.00
42841;DHT22;28491;46.898;7.660;2023-12-14T15:11:35;6.00;94.20
42841;DHT22;28491;46.898;7.660;2023-12-14T15:14:00;6.00;94.40
42841;DHT22;28491;46.898;7.660;2023-12-14T15:16:26;6.00;94.70
42841;DHT22;28491;46.898;7.660;2023-12-14T15:18:52;6.00;94.90
42841;DHT22;28491;46.898;7.660;2023-12-14T15:21:18;5.90;95.20
42841;DHT22;28491;46.898;7.660;2023-12-14T15:23:43;6.00;95.20
42841;DHT22;28491;46.898;7.660;2023-12-14T15:26:12;5.90;95.10
42841;DHT22;28491;46.898;7.660;2023-12-14T15:28:38;5.90;95.20
42841;DHT22;28491;46.898;7.660;2023-12-14T15:31:04;6.00;95.40
42841;DHT22;28491;46.898;7.660;2023-12-14T15:33:30;5.90;95.80
42841;DHT22;28491;46.898;7.660;2023-12-14T15:35:55;5.90;95.80
42841;DHT22;28491;46.898;7.660;2023-12-14T15:38:21;5.90;95.90
42841;DHT22;28491;46.898;7.660;2023-12-14T15:40:47;5.90;96.00
42841;DHT22;28491;46.898;7.660;2023-12-14T15:43:12;5.90;96.00
42841;DHT22;28491;46.898;7.660;2023-12-14T15:45:39;5.90;96.00
42841;DHT22;28491;46.898;7.660;2023-12-14T15:48:05;5.90;95.90
42841;DHT22;28491;46.898;7.660;2023-12-14T15:50:44;5.80;95.70